Terminal Aerodrome Forecast
Issued by NWS Jackson, KY

Current Version | Previous Version | Text Only | Print | Product List | Glossary On
Versions: 1 2 3 4 5 6 7 8 9 10 11 12 13 14 15 16 17 18 19 20 21 22 23
023
FTUS43 KJKL 061008 AAB
TAFJKL
TAF AMD
KJKL 061008Z 0610/0706 08004KT 6SM -RA SCT020 OVC040
     FM061100 11006KT 3SM RA OVC010
     FM061300 17005KT 2SM RA OVC008
     FM062200 28008KT P6SM VCSH OVC006=

USA.gov is the U.S. government's official web portal to all federal, state and local government web resources and services.